sensor_id;sensor_type;location;lat;lon;timestamp;temperature;humidity
1429;DHT22;708;51.442;7.016;2022-12-18T00:02:13;-1.00;99.90
1429;DHT22;708;51.442;7.016;2022-12-18T00:04:40;-0.90;99.90
1429;DHT22;708;51.442;7.016;2022-12-18T00:07:07;-0.90;99.90
1429;DHT22;708;51.442;7.016;2022-12-18T00:09:34;-0.90;99.90
1429;DHT22;708;51.442;7.016;2022-12-18T00:12:00;-0.90;96.80
1429;DHT22;708;51.442;7.016;2022-12-18T00:14:27;-0.90;1.00
1429;DHT22;708;51.442;7.016;2022-12-18T00:16:55;-0.90;1.00
1429;DHT22;708;51.442;7.016;2022-12-18T00:19:23;-1.00;1.00
1429;DHT22;708;51.442;7.016;2022-12-18T00:21:50;-1.00;99.90
1429;DHT22;708;51.442;7.016;2022-12-18T00:24:17;-1.00;99.90
1429;DHT22;708;51.442;7.016;2022-12-18T00:26:44;-1.00;99.90
1429;DHT22;708;51.442;7.016;2022-12-18T00:29:12;-1.00;99.90
1429;DHT22;708;51.442;7.016;2022-12-18T00:31:41;-1.10;99.90
1429;DHT22;708;51.442;7.016;2022-12-18T00:34:10;-1.10;99.90
1429;DHT22;708;51.442;7.016;2022-12-18T00:36:38;-1.00;99.90
1429;DHT22;708;51.442;7.016;2022-12-18T00:39:05;-1.00;1.00
1429;DHT22;708;51.442;7.016;2022-12-18T00:41:32;-0.90;1.00
1429;DHT22;708;51.442;7.016;2022-12-18T00:44:18;-0.90;99.90
1429;DHT22;708;51.442;7.016;2022-12-18T00:46:46;-0.80;99.90
1429;DHT22;708;51.442;7.016;2022-12-18T00:49:15;-0.80;36.40
1429;DHT22;708;51.442;7.016;2022-12-18T00:51:41;-0.80;1.00
1429;DHT22;708;51.442;7.016;2022-12-18T00:54:08;-0.90;1.00
1429;DHT22;708;51.442;7.016;2022-12-18T00:56:36;-0.80;1.00
1429;DHT22;708;51.442;7.016;2022-12-18T00:59:03;-0.90;99.90
1429;DHT22;708;51.442;7.016;2022-12-18T01:01:30;-0.90;99.90
1429;DHT22;708;51.442;7.016;2022-12-18T01:03:58;-0.90;99.90
1429;DHT22;708;51.442;7.016;2022-12-18T01:06:27;-0.90;99.90
1429;DHT22;708;51.442;7.016;2022-12-18T01:08:54;-0.90;99.90
1429;DHT22;708;51.442;7.016;2022-12-18T01:11:21;-0.90;99.90
1429;DHT22;708;51.442;7.016;2022-12-18T01:13:48;-0.90;99.90
1429;DHT22;708;51.442;7.016;2022-12-18T01:16:16;-0.90;57.50
1429;DHT22;708;51.442;7.016;2022-12-18T01:18:43;-0.90;60.90
1429;DHT22;708;51.442;7.016;2022-12-18T01:21:12;-0.90;34.20
1429;DHT22;708;51.442;7.016;2022-12-18T01:23:41;-0.90;1.00
1429;DHT22;708;51.442;7.016;2022-12-18T01:26:09;-0.90;3.50
1429;DHT22;708;51.442;7.016;2022-12-18T01:28:36;-0.80;1.00
1429;DHT22;708;51.442;7.016;2022-12-18T01:31:11;-0.80;1.00
1429;DHT22;708;51.442;7.016;2022-12-18T01:33:38;-0.70;1.00
1429;DHT22;708;51.442;7.016;2022-12-18T01:36:05;-0.70;1.00
1429;DHT22;708;51.442;7.016;2022-12-18T01:38:32;-0.70;1.00
1429;DHT22;708;51.442;7.016;2022-12-18T01:41:02;-0.70;1.00
1429;DHT22;708;51.442;7.016;2022-12-18T01:43:41;-0.70;1.00
1429;DHT22;708;51.442;7.016;2022-12-18T01:46:08;-0.60;1.00
1429;DHT22;708;51.442;7.016;2022-12-18T01:48:36;-0.60;1.00
1429;DHT22;708;51.442;7.016;2022-12-18T01:51:02;-0.60;1.00
1429;DHT22;708;51.442;7.016;2022-12-18T01:53:30;-0.60;1.00
1429;DHT22;708;51.442;7.016;2022-12-18T01:55:59;-0.60;1.00
1429;DHT22;708;51.442;7.016;2022-12-18T01:58:32;-0.60;1.00
1429;DHT22;708;51.442;7.016;2022-12-18T02:01:02;-0.60;93.20
1429;DHT22;708;51.442;7.016;2022-12-18T02:03:28;-0.60;66.00
1429;DHT22;708;51.442;7.016;2022-12-18T02:06:03;-0.60;99.90
1429;DHT22;708;51.442;7.016;2022-12-18T02:08:37;-0.60;99.90
1429;DHT22;708;51.442;7.016;2022-12-18T02:11:14;-0.60;99.90
1429;DHT22;708;51.442;7.016;2022-12-18T02:13:46;-0.60;99.90
1429;DHT22;708;51.442;7.016;2022-12-18T02:16:23;-0.60;99.90
1429;DHT22;708;51.442;7.016;2022-12-18T02:18:57;-0.60;1.00
1429;DHT22;708;51.442;7.016;2022-12-18T02:21:31;-0.60;1.00
1429;DHT22;708;51.442;7.016;2022-12-18T02:24:13;-0.50;1.00
1429;DHT22;708;51.442;7.016;2022-12-18T02:26:46;-0.50;1.00
1429;DHT22;708;51.442;7.016;2022-12-18T02:29:17;-0.40;1.00
1429;DHT22;708;51.442;7.016;2022-12-18T02:31:50;-0.40;1.00
1429;DHT22;708;51.442;7.016;2022-12-18T02:34:18;-0.40;1.00
1429;DHT22;708;51.442;7.016;2022-12-18T02:36:50;-0.40;1.00
1429;DHT22;708;51.442;7.016;2022-12-18T02:39:18;-0.40;2.50
1429;DHT22;708;51.442;7.016;2022-12-18T02:41:48;-0.30;1.00
1429;DHT22;708;51.442;7.016;2022-12-18T02:44:15;-0.20;1.00
1429;DHT22;708;51.442;7.016;2022-12-18T02:46:44;-0.10;1.00
1429;DHT22;708;51.442;7.016;2022-12-18T02:49:23;-0.10;1.00
1429;DHT22;708;51.442;7.016;2022-12-18T02:51:55;-0.10;99.90
1429;DHT22;708;51.442;7.016;2022-12-18T02:54:46;-0.10;1.00
1429;DHT22;708;51.442;7.016;2022-12-18T02:57:21;-0.10;99.90
1429;DHT22;708;51.442;7.016;2022-12-18T02:59:56;-0.10;1.00
1429;DHT22;708;51.442;7.016;2022-12-18T03:02:31;0.00;99.90
1429;DHT22;708;51.442;7.016;2022-12-18T03:05:04;0.00;99.90
1429;DHT22;708;51.442;7.016;2022-12-18T03:07:37;0.00;99.90
1429;DHT22;708;51.442;7.016;2022-12-18T03:10:08;0.00;99.90
1429;DHT22;708;51.442;7.016;2022-12-18T03:12:41;0.00;99.90
1429;DHT22;708;51.442;7.016;2022-12-18T03:15:12;0.00;99.90
1429;DHT22;708;51.442;7.016;2022-12-18T03:17:44;0.00;99.90
1429;DHT22;708;51.442;7.016;2022-12-18T03:20:14;0.00;99.90
1429;DHT22;708;51.442;7.016;2022-12-18T03:22:43;0.00;99.90
1429;DHT22;708;51.442;7.016;2022-12-18T03:25:13;-0.10;99.90
1429;DHT22;708;51.442;7.016;2022-12-18T03:27:46;-0.10;99.90
1429;DHT22;708;51.442;7.016;2022-12-18T03:30:15;-0.20;99.90
1429;DHT22;708;51.442;7.016;2022-12-18T03:32:46;-0.20;99.90
1429;DHT22;708;51.442;7.016;2022-12-18T03:35:20;-0.20;99.90
1429;DHT22;708;51.442;7.016;2022-12-18T03:37:48;-0.20;99.90
1429;DHT22;708;51.442;7.016;2022-12-18T03:40:15;-0.20;99.90
1429;DHT22;708;51.442;7.016;2022-12-18T03:42:49;-0.20;99.90
1429;DHT22;708;51.442;7.016;2022-12-18T03:45:21;-0.30;99.90
1429;DHT22;708;51.442;7.016;2022-12-18T03:47:57;-0.30;99.90
1429;DHT22;708;51.442;7.016;2022-12-18T03:50:33;-0.30;99.90
1429;DHT22;708;51.442;7.016;2022-12-18T03:53:09;-0.20;99.90
1429;DHT22;708;51.442;7.016;2022-12-18T03:55:42;-0.30;99.90
1429;DHT22;708;51.442;7.016;2022-12-18T03:58:14;-0.30;99.90
1429;DHT22;708;51.442;7.016;2022-12-18T04:00:43;-0.30;99.90
1429;DHT22;708;51.442;7.016;2022-12-18T04:03:11;-0.20;99.90
1429;DHT22;708;51.442;7.016;2022-12-18T04:05:39;-0.20;99.90
1429;DHT22;708;51.442;7.016;2022-12-18T04:08:06;-0.20;99.90
1429;DHT22;708;51.442;7.016;2022-12-18T04:10:33;-0.20;89.90
1429;DHT22;708;51.442;7.016;2022-12-18T04:13:00;-0.20;28.80
1429;DHT22;708;51.442;7.016;2022-12-18T04:15:29;-0.20;1.00
1429;DHT22;708;51.442;7.016;2022-12-18T04:17:58;-0.20;6.80
1429;DHT22;708;51.442;7.016;2022-12-18T04:20:24;-0.20;27.30
1429;DHT22;708;51.442;7.016;2022-12-18T04:22:51;-0.20;25.70
1429;DHT22;708;51.442;7.016;2022-12-18T04:25:18;-0.20;2.10
1429;DHT22;708;51.442;7.016;2022-12-18T04:27:45;-0.20;1.00
1429;DHT22;708;51.442;7.016;2022-12-18T04:30:16;-0.20;1.00
1429;DHT22;708;51.442;7.016;2022-12-18T04:32:44;-0.20;1.00
1429;DHT22;708;51.442;7.016;2022-12-18T04:35:11;-0.20;1.00
1429;DHT22;708;51.442;7.016;2022-12-18T04:37:37;-0.20;1.00
1429;DHT22;708;51.442;7.016;2022-12-18T04:40:05;-0.30;1.00
1429;DHT22;708;51.442;7.016;2022-12-18T04:42:32;-0.20;1.00
1429;DHT22;708;51.442;7.016;2022-12-18T04:44:59;-0.20;1.00
1429;DHT22;708;51.442;7.016;2022-12-18T04:47:26;-0.20;1.00
1429;DHT22;708;51.442;7.016;2022-12-18T04:49:54;-0.30;1.00
1429;DHT22;708;51.442;7.016;2022-12-18T04:52:21;-0.30;15.30
1429;DHT22;708;51.442;7.016;2022-12-18T04:54:47;-0.40;18.00
1429;DHT22;708;51.442;7.016;2022-12-18T04:57:14;-0.40;32.30
1429;DHT22;708;51.442;7.016;2022-12-18T04:59:41;-0.50;32.00
1429;DHT22;708;51.442;7.016;2022-12-18T05:02:08;-0.50;99.90
1429;DHT22;708;51.442;7.016;2022-12-18T05:04:34;-0.60;99.90
1429;DHT22;708;51.442;7.016;2022-12-18T05:07:02;-0.60;99.90
1429;DHT22;708;51.442;7.016;2022-12-18T05:09:29;-0.70;99.90
1429;DHT22;708;51.442;7.016;2022-12-18T05:11:56;-0.60;99.90
1429;DHT22;708;51.442;7.016;2022-12-18T05:14:23;-0.60;99.90
1429;DHT22;708;51.442;7.016;2022-12-18T05:16:50;-0.60;99.90
1429;DHT22;708;51.442;7.016;2022-12-18T05:19:17;-0.70;99.90
1429;DHT22;708;51.442;7.016;2022-12-18T05:21:43;-0.70;99.90
1429;DHT22;708;51.442;7.016;2022-12-18T05:24:12;-0.70;99.90
1429;DHT22;708;51.442;7.016;2022-12-18T05:26:39;-0.70;99.90
1429;DHT22;708;51.442;7.016;2022-12-18T05:29:05;-0.70;99.90
1429;DHT22;708;51.442;7.016;2022-12-18T05:31:32;-0.70;99.90
1429;DHT22;708;51.442;7.016;2022-12-18T05:33:59;-0.70;99.90
1429;DHT22;708;51.442;7.016;2022-12-18T05:36:26;-0.70;99.90
1429;DHT22;708;51.442;7.016;2022-12-18T05:38:52;-0.70;99.90
1429;DHT22;708;51.442;7.016;2022-12-18T05:41:21;-0.70;99.90
1429;DHT22;708;51.442;7.016;2022-12-18T05:43:47;-0.70;99.90
1429;DHT22;708;51.442;7.016;2022-12-18T05:46:16;-0.60;99.90
1429;DHT22;708;51.442;7.016;2022-12-18T05:48:44;-0.60;77.30
1429;DHT22;708;51.442;7.016;2022-12-18T05:51:13;-0.60;47.70
1429;DHT22;708;51.442;7.016;2022-12-18T05:53:42;-0.60;13.60
1429;DHT22;708;51.442;7.016;2022-12-18T05:56:10;-0.60;20.20
1429;DHT22;708;51.442;7.016;2022-12-18T05:58:39;-0.60;1.00
1429;DHT22;708;51.442;7.016;2022-12-18T06:01:08;-0.60;1.00
1429;DHT22;708;51.442;7.016;2022-12-18T06:03:35;-0.50;1.00
1429;DHT22;708;51.442;7.016;2022-12-18T06:06:02;-0.50;1.00
1429;DHT22;708;51.442;7.016;2022-12-18T06:08:29;-0.50;1.00
1429;DHT22;708;51.442;7.016;2022-12-18T06:10:56;-0.50;1.00
1429;DHT22;708;51.442;7.016;2022-12-18T06:13:23;-0.40;99.90
1429;DHT22;708;51.442;7.016;2022-12-18T06:15:51;-0.40;99.90
1429;DHT22;708;51.442;7.016;2022-12-18T06:18:18;-0.40;99.90
1429;DHT22;708;51.442;7.016;2022-12-18T06:20:44;-0.40;99.90
1429;DHT22;708;51.442;7.016;2022-12-18T06:23:11;-0.40;99.90
1429;DHT22;708;51.442;7.016;2022-12-18T06:25:39;-0.40;99.90
1429;DHT22;708;51.442;7.016;2022-12-18T06:28:06;-0.40;99.90
1429;DHT22;708;51.442;7.016;2022-12-18T06:30:32;-0.40;99.90
1429;DHT22;708;51.442;7.016;2022-12-18T06:33:00;-0.40;99.90
1429;DHT22;708;51.442;7.016;2022-12-18T06:35:27;-0.40;99.90
1429;DHT22;708;51.442;7.016;2022-12-18T06:37:54;-0.40;99.90
1429;DHT22;708;51.442;7.016;2022-12-18T06:40:21;-0.40;99.90
1429;DHT22;708;51.442;7.016;2022-12-18T06:42:48;-0.40;99.90
1429;DHT22;708;51.442;7.016;2022-12-18T06:45:16;-0.40;99.90
1429;DHT22;708;51.442;7.016;2022-12-18T06:47:43;-0.40;99.90
1429;DHT22;708;51.442;7.016;2022-12-18T06:50:12;-0.40;99.90
1429;DHT22;708;51.442;7.016;2022-12-18T06:52:39;-0.40;99.90
1429;DHT22;708;51.442;7.016;2022-12-18T06:55:08;-0.40;99.90
1429;DHT22;708;51.442;7.016;2022-12-18T06:57:35;-0.40;99.90
1429;DHT22;708;51.442;7.016;2022-12-18T07:00:02;-0.40;99.90
1429;DHT22;708;51.442;7.016;2022-12-18T07:02:29;-0.40;99.90
1429;DHT22;708;51.442;7.016;2022-12-18T07:04:58;-0.40;95.00
1429;DHT22;708;51.442;7.016;2022-12-18T07:07:26;-0.50;87.30
1429;DHT22;708;51.442;7.016;2022-12-18T07:09:53;-0.40;47.70
1429;DHT22;708;51.442;7.016;2022-12-18T07:12:20;-0.40;29.10
1429;DHT22;708;51.442;7.016;2022-12-18T07:14:47;-0.40;10.40
1429;DHT22;708;51.442;7.016;2022-12-18T07:17:14;-0.40;8.60
1429;DHT22;708;51.442;7.016;2022-12-18T07:19:40;-0.40;1.00
1429;DHT22;708;51.442;7.016;2022-12-18T07:22:10;-0.40;1.00
1429;DHT22;708;51.442;7.016;2022-12-18T07:24:38;-0.40;1.00
1429;DHT22;708;51.442;7.016;2022-12-18T07:27:05;-0.40;1.00
1429;DHT22;708;51.442;7.016;2022-12-18T07:29:32;-0.30;1.00
1429;DHT22;708;51.442;7.016;2022-12-18T07:31:58;-0.40;1.00
1429;DHT22;708;51.442;7.016;2022-12-18T07:34:25;-0.30;1.00
1429;DHT22;708;51.442;7.016;2022-12-18T07:36:52;-0.20;1.00
1429;DHT22;708;51.442;7.016;2022-12-18T07:39:19;-0.20;1.00
1429;DHT22;708;51.442;7.016;2022-12-18T07:41:47;-0.10;99.90
1429;DHT22;708;51.442;7.016;2022-12-18T07:44:34;0.00;99.90
1429;DHT22;708;51.442;7.016;2022-12-18T07:47:01;0.10;99.90
1429;DHT22;708;51.442;7.016;2022-12-18T07:49:31;0.20;99.90
1429;DHT22;708;51.442;7.016;2022-12-18T07:51:58;0.30;99.90
1429;DHT22;708;51.442;7.016;2022-12-18T07:54:25;0.40;99.90
1429;DHT22;708;51.442;7.016;2022-12-18T07:56:53;0.50;99.90
1429;DHT22;708;51.442;7.016;2022-12-18T07:59:20;0.60;99.90
1429;DHT22;708;51.442;7.016;2022-12-18T08:01:46;0.70;99.90
1429;DHT22;708;51.442;7.016;2022-12-18T08:04:13;0.80;99.90
1429;DHT22;708;51.442;7.016;2022-12-18T08:06:40;0.90;99.90
1429;DHT22;708;51.442;7.016;2022-12-18T08:09:07;1.00;99.90
1429;DHT22;708;51.442;7.016;2022-12-18T08:11:34;1.10;99.90
1429;DHT22;708;51.442;7.016;2022-12-18T08:14:02;1.20;99.90
1429;DHT22;708;51.442;7.016;2022-12-18T08:16:29;1.30;99.90
1429;DHT22;708;51.442;7.016;2022-12-18T08:18:56;1.40;99.90
1429;DHT22;708;51.442;7.016;2022-12-18T08:21:25;1.50;99.90
1429;DHT22;708;51.442;7.016;2022-12-18T08:23:53;1.50;99.90
1429;DHT22;708;51.442;7.016;2022-12-18T08:26:21;1.70;99.90
1429;DHT22;708;51.442;7.016;2022-12-18T08:28:48;1.80;99.90
1429;DHT22;708;51.442;7.016;2022-12-18T08:31:16;1.90;99.90
1429;DHT22;708;51.442;7.016;2022-12-18T08:33:43;2.10;99.90
1429;DHT22;708;51.442;7.016;2022-12-18T08:36:10;2.70;99.90
1429;DHT22;708;51.442;7.016;2022-12-18T08:38:37;3.50;99.90
1429;DHT22;708;51.442;7.016;2022-12-18T08:41:05;4.30;99.90
1429;DHT22;708;51.442;7.016;2022-12-18T08:43:32;5.20;99.90
1429;DHT22;708;51.442;7.016;2022-12-18T08:46:18;6.10;99.90
1429;DHT22;708;51.442;7.016;2022-12-18T08:48:46;7.00;99.90
1429;DHT22;708;51.442;7.016;2022-12-18T08:51:15;7.70;99.90
1429;DHT22;708;51.442;7.016;2022-12-18T08:53:42;8.10;99.90
1429;DHT22;708;51.442;7.016;2022-12-18T08:56:10;8.30;99.90
1429;DHT22;708;51.442;7.016;2022-12-18T08:58:36;8.70;99.90
1429;DHT22;708;51.442;7.016;2022-12-18T09:01:04;8.80;99.90
1429;DHT22;708;51.442;7.016;2022-12-18T09:03:33;9.30;99.90
1429;DHT22;708;51.442;7.016;2022-12-18T09:06:00;9.40;99.40
1429;DHT22;708;51.442;7.016;2022-12-18T09:08:27;9.50;98.50
1429;DHT22;708;51.442;7.016;2022-12-18T09:10:54;9.30;98.10
1429;DHT22;708;51.442;7.016;2022-12-18T09:13:21;9.30;97.80
1429;DHT22;708;51.442;7.016;2022-12-18T09:15:49;9.10;97.90
1429;DHT22;708;51.442;7.016;2022-12-18T09:18:18;8.80;97.20
1429;DHT22;708;51.442;7.016;2022-12-18T09:20:46;8.70;97.00
1429;DHT22;708;51.442;7.016;2022-12-18T09:23:13;8.50;96.40
1429;DHT22;708;51.442;7.016;2022-12-18T09:25:40;8.10;96.40
1429;DHT22;708;51.442;7.016;2022-12-18T09:28:11;7.90;95.60
1429;DHT22;708;51.442;7.016;2022-12-18T09:30:38;7.80;95.90
1429;DHT22;708;51.442;7.016;2022-12-18T09:33:05;7.80;95.40
1429;DHT22;708;51.442;7.016;2022-12-18T09:35:32;7.70;95.10
1429;DHT22;708;51.442;7.016;2022-12-18T09:38:00;7.90;95.10
1429;DHT22;708;51.442;7.016;2022-12-18T09:40:33;8.20;94.80
1429;DHT22;708;51.442;7.016;2022-12-18T09:43:04;8.50;94.60
1429;DHT22;708;51.442;7.016;2022-12-18T09:45:37;8.50;94.40
1429;DHT22;708;51.442;7.016;2022-12-18T09:48:05;8.60;93.80
1429;DHT22;708;51.442;7.016;2022-12-18T09:50:35;8.50;94.20
1429;DHT22;708;51.442;7.016;2022-12-18T09:53:07;8.20;93.50
1429;DHT22;708;51.442;7.016;2022-12-18T09:55:38;8.00;93.40
1429;DHT22;708;51.442;7.016;2022-12-18T09:58:12;7.90;92.90
1429;DHT22;708;51.442;7.016;2022-12-18T10:00:41;7.70;92.80
1429;DHT22;708;51.442;7.016;2022-12-18T10:03:10;7.50;92.70
1429;DHT22;708;51.442;7.016;2022-12-18T10:05:40;7.10;92.60
1429;DHT22;708;51.442;7.016;2022-12-18T10:08:15;7.00;92.50
1429;DHT22;708;51.442;7.016;2022-12-18T10:10:47;6.60;92.80
1429;DHT22;708;51.442;7.016;2022-12-18T10:13:30;6.50;92.80
1429;DHT22;708;51.442;7.016;2022-12-18T10:16:07;6.30;92.40
1429;DHT22;708;51.442;7.016;2022-12-18T10:18:51;6.20;93.00
1429;DHT22;708;51.442;7.016;2022-12-18T10:21:25;6.10;92.60
1429;DHT22;708;51.442;7.016;2022-12-18T10:24:02;6.00;92.40
1429;DHT22;708;51.442;7.016;2022-12-18T10:26:31;6.10;92.70
1429;DHT22;708;51.442;7.016;2022-12-18T10:28:59;6.10;92.80
1429;DHT22;708;51.442;7.016;2022-12-18T10:31:26;6.20;92.70
1429;DHT22;708;51.442;7.016;2022-12-18T10:33:54;6.20;92.90
1429;DHT22;708;51.442;7.016;2022-12-18T10:36:22;6.30;92.70
1429;DHT22;708;51.442;7.016;2022-12-18T10:38:49;6.30;92.20
1429;DHT22;708;51.442;7.016;2022-12-18T10:41:26;6.30;92.50
1429;DHT22;708;51.442;7.016;2022-12-18T10:44:12;6.50;92.90
1429;DHT22;708;51.442;7.016;2022-12-18T10:46:41;6.60;92.70
1429;DHT22;708;51.442;7.016;2022-12-18T10:49:19;6.60;92.60
1429;DHT22;708;51.442;7.016;2022-12-18T10:51:47;6.70;92.30
1429;DHT22;708;51.442;7.016;2022-12-18T10:54:17;6.70;92.50
1429;DHT22;708;51.442;7.016;2022-12-18T10:56:45;6.80;92.40
1429;DHT22;708;51.442;7.016;2022-12-18T10:59:14;6.70;92.40
1429;DHT22;708;51.442;7.016;2022-12-18T11:01:50;6.70;92.00
1429;DHT22;708;51.442;7.016;2022-12-18T11:04:19;6.70;92.00
1429;DHT22;708;51.442;7.016;2022-12-18T11:06:55;6.60;92.20
1429;DHT22;708;51.442;7.016;2022-12-18T11:09:23;6.60;92.50
1429;DHT22;708;51.442;7.016;2022-12-18T11:11:54;6.60;92.30
1429;DHT22;708;51.442;7.016;2022-12-18T11:14:23;6.60;92.10
1429;DHT22;708;51.442;7.016;2022-12-18T11:16:51;6.70;92.00
1429;DHT22;708;51.442;7.016;2022-12-18T11:19:31;6.70;91.70
1429;DHT22;708;51.442;7.016;2022-12-18T11:21:59;6.80;91.30
1429;DHT22;708;51.442;7.016;2022-12-18T11:24:29;6.70;91.60
1429;DHT22;708;51.442;7.016;2022-12-18T11:27:01;6.70;91.00
1429;DHT22;708;51.442;7.016;2022-12-18T11:29:33;6.70;91.10
1429;DHT22;708;51.442;7.016;2022-12-18T11:32:24;6.70;91.00
1429;DHT22;708;51.442;7.016;2022-12-18T11:34:57;6.70;90.90
1429;DHT22;708;51.442;7.016;2022-12-18T11:37:27;6.70;90.90
1429;DHT22;708;51.442;7.016;2022-12-18T11:39:57;6.80;90.90
1429;DHT22;708;51.442;7.016;2022-12-18T11:42:33;6.80;91.10
1429;DHT22;708;51.442;7.016;2022-12-18T11:45:18;7.00;91.00
1429;DHT22;708;51.442;7.016;2022-12-18T11:47:52;7.10;90.30
1429;DHT22;708;51.442;7.016;2022-12-18T11:50:24;7.20;90.40
1429;DHT22;708;51.442;7.016;2022-12-18T11:52:52;7.10;90.10
1429;DHT22;708;51.442;7.016;2022-12-18T11:55:28;7.20;90.30
1429;DHT22;708;51.442;7.016;2022-12-18T11:58:05;7.20;90.30
1429;DHT22;708;51.442;7.016;2022-12-18T12:00:38;7.10;90.00
1429;DHT22;708;51.442;7.016;2022-12-18T12:03:20;7.10;89.10
1429;DHT22;708;51.442;7.016;2022-12-18T12:05:57;7.20;88.60
1429;DHT22;708;51.442;7.016;2022-12-18T12:08:34;7.30;90.00
1429;DHT22;708;51.442;7.016;2022-12-18T12:11:06;7.30;89.80
1429;DHT22;708;51.442;7.016;2022-12-18T12:13:47;7.40;90.10
1429;DHT22;708;51.442;7.016;2022-12-18T12:16:21;7.50;88.90
1429;DHT22;708;51.442;7.016;2022-12-18T12:19:10;7.60;88.80
1429;DHT22;708;51.442;7.016;2022-12-18T12:21:45;7.70;88.50
1429;DHT22;708;51.442;7.016;2022-12-18T12:24:24;7.70;88.40
1429;DHT22;708;51.442;7.016;2022-12-18T12:26:59;7.70;88.40
1429;DHT22;708;51.442;7.016;2022-12-18T12:29:39;7.80;87.90
1429;DHT22;708;51.442;7.016;2022-12-18T12:32:15;7.70;95.40
1429;DHT22;708;51.442;7.016;2022-12-18T12:34:53;7.70;88.10
1429;DHT22;708;51.442;7.016;2022-12-18T12:37:30;7.70;87.80
1429;DHT22;708;51.442;7.016;2022-12-18T12:40:02;7.50;88.00
1429;DHT22;708;51.442;7.016;2022-12-18T12:42:33;7.50;87.20
1429;DHT22;708;51.442;7.016;2022-12-18T12:45:23;7.40;86.20
1429;DHT22;708;51.442;7.016;2022-12-18T12:47:53;7.30;86.00
1429;DHT22;708;51.442;7.016;2022-12-18T12:50:21;7.20;86.20
1429;DHT22;708;51.442;7.016;2022-12-18T12:52:52;7.20;85.70
1429;DHT22;708;51.442;7.016;2022-12-18T12:55:21;7.10;87.00
1429;DHT22;708;51.442;7.016;2022-12-18T12:57:55;7.00;85.80
1429;DHT22;708;51.442;7.016;2022-12-18T13:00:28;6.90;86.80
1429;DHT22;708;51.442;7.016;2022-12-18T13:03:01;7.00;86.80
1429;DHT22;708;51.442;7.016;2022-12-18T13:05:34;7.00;86.10
1429;DHT22;708;51.442;7.016;2022-12-18T13:08:08;6.90;87.40
1429;DHT22;708;51.442;7.016;2022-12-18T13:10:36;6.90;87.50
1429;DHT22;708;51.442;7.016;2022-12-18T13:13:06;6.90;86.80
1429;DHT22;708;51.442;7.016;2022-12-18T13:15:37;6.90;87.40
1429;DHT22;708;51.442;7.016;2022-12-18T13:18:19;7.00;88.20
1429;DHT22;708;51.442;7.016;2022-12-18T13:20:49;7.10;87.70
1429;DHT22;708;51.442;7.016;2022-12-18T13:23:32;7.10;87.80
1429;DHT22;708;51.442;7.016;2022-12-18T13:26:28;7.10;87.60
1429;DHT22;708;51.442;7.016;2022-12-18T13:28:56;7.00;86.00
1429;DHT22;708;51.442;7.016;2022-12-18T13:34:33;6.60;90.00
1429;DHT22;708;51.442;7.016;2022-12-18T13:37:39;6.40;87.80
1429;DHT22;708;51.442;7.016;2022-12-18T13:43:21;6.30;88.20
1429;DHT22;708;51.442;7.016;2022-12-18T13:46:04;6.00;89.50
1429;DHT22;708;51.442;7.016;2022-12-18T13:48:33;5.80;90.20
1429;DHT22;708;51.442;7.016;2022-12-18T13:51:02;5.70;90.00
1429;DHT22;708;51.442;7.016;2022-12-18T13:53:34;5.70;90.30
1429;DHT22;708;51.442;7.016;2022-12-18T13:56:03;5.60;90.50
1429;DHT22;708;51.442;7.016;2022-12-18T13:58:30;5.60;90.50
1429;DHT22;708;51.442;7.016;2022-12-18T14:00:58;5.60;90.90
1429;DHT22;708;51.442;7.016;2022-12-18T14:03:29;5.60;91.40
1429;DHT22;708;51.442;7.016;2022-12-18T14:06:00;5.50;91.90
1429;DHT22;708;51.442;7.016;2022-12-18T14:08:32;5.50;91.70
1429;DHT22;708;51.442;7.016;2022-12-18T14:11:00;5.40;91.70
1429;DHT22;708;51.442;7.016;2022-12-18T14:13:30;5.50;92.60
1429;DHT22;708;51.442;7.016;2022-12-18T14:15:59;5.40;92.40
1429;DHT22;708;51.442;7.016;2022-12-18T14:18:29;5.50;92.40
1429;DHT22;708;51.442;7.016;2022-12-18T14:21:00;5.40;91.80
1429;DHT22;708;51.442;7.016;2022-12-18T14:23:33;5.30;91.60
1429;DHT22;708;51.442;7.016;2022-12-18T14:26:01;5.30;91.70
1429;DHT22;708;51.442;7.016;2022-12-18T14:28:29;5.20;92.20
1429;DHT22;708;51.442;7.016;2022-12-18T14:30:56;5.20;92.50
1429;DHT22;708;51.442;7.016;2022-12-18T14:33:26;5.20;92.20
1429;DHT22;708;51.442;7.016;2022-12-18T14:35:56;5.20;92.20
1429;DHT22;708;51.442;7.016;2022-12-18T14:38:28;5.20;92.10
1429;DHT22;708;51.442;7.016;2022-12-18T14:40:57;5.30;92.50
1429;DHT22;708;51.442;7.016;2022-12-18T14:43:25;5.30;92.40
1429;DHT22;708;51.442;7.016;2022-12-18T14:45:52;5.30;92.50
1429;DHT22;708;51.442;7.016;2022-12-18T14:48:21;5.30;92.40
1429;DHT22;708;51.442;7.016;2022-12-18T14:50:57;5.30;91.90
1429;DHT22;708;51.442;7.016;2022-12-18T14:53:34;5.30;92.30
1429;DHT22;708;51.442;7.016;2022-12-18T14:56:02;5.30;92.40
1429;DHT22;708;51.442;7.016;2022-12-18T14:58:32;5.20;92.20
1429;DHT22;708;51.442;7.016;2022-12-18T15:00:58;5.20;92.30
1429;DHT22;708;51.442;7.016;2022-12-18T15:03:25;5.20;92.20
1429;DHT22;708;51.442;7.016;2022-12-18T15:05:52;5.10;92.10
1429;DHT22;708;51.442;7.016;2022-12-18T15:08:34;5.10;92.10
1429;DHT22;708;51.442;7.016;2022-12-18T15:11:02;5.20;92.30
1429;DHT22;708;51.442;7.016;2022-12-18T15:13:29;5.20;92.40
1429;DHT22;708;51.442;7.016;2022-12-18T15:15:57;5.10;92.40
1429;DHT22;708;51.442;7.016;2022-12-18T15:18:32;5.10;92.70
1429;DHT22;708;51.442;7.016;2022-12-18T15:21:08;5.10;92.50
1429;DHT22;708;51.442;7.016;2022-12-18T15:23:46;5.10;92.70
1429;DHT22;708;51.442;7.016;2022-12-18T15:26:15;5.10;93.00
1429;DHT22;708;51.442;7.016;2022-12-18T15:28:45;5.00;93.00
1429;DHT22;708;51.442;7.016;2022-12-18T15:31:24;4.90;93.40
1429;DHT22;708;51.442;7.016;2022-12-18T15:34:10;4.90;93.60
1429;DHT22;708;51.442;7.016;2022-12-18T15:36:38;4.90;93.90
1429;DHT22;708;51.442;7.016;2022-12-18T15:39:06;4.90;94.30
1429;DHT22;708;51.442;7.016;2022-12-18T15:41:34;4.80;94.20
1429;DHT22;708;51.442;7.016;2022-12-18T15:44:02;4.80;95.00
1429;DHT22;708;51.442;7.016;2022-12-18T15:46:28;4.70;95.80
1429;DHT22;708;51.442;7.016;2022-12-18T15:48:57;4.80;96.50
1429;DHT22;708;51.442;7.016;2022-12-18T15:51:26;4.70;96.70
1429;DHT22;708;51.442;7.016;2022-12-18T15:53:55;4.70;97.40
1429;DHT22;708;51.442;7.016;2022-12-18T15:56:24;4.70;98.10
1429;DHT22;708;51.442;7.016;2022-12-18T15:59:10;4.70;99.00
1429;DHT22;708;51.442;7.016;2022-12-18T16:01:39;4.70;99.80
1429;DHT22;708;51.442;7.016;2022-12-18T16:04:06;4.70;99.90
1429;DHT22;708;51.442;7.016;2022-12-18T16:06:33;4.70;99.90
1429;DHT22;708;51.442;7.016;2022-12-18T16:08:59;4.70;99.90
1429;DHT22;708;51.442;7.016;2022-12-18T16:11:29;4.70;99.90
1429;DHT22;708;51.442;7.016;2022-12-18T16:14:12;4.70;99.90
1429;DHT22;708;51.442;7.016;2022-12-18T16:16:39;4.60;99.90
1429;DHT22;708;51.442;7.016;2022-12-18T16:19:07;4.70;99.90
1429;DHT22;708;51.442;7.016;2022-12-18T16:21:34;4.70;99.90
1429;DHT22;708;51.442;7.016;2022-12-18T16:24:01;4.70;99.90
1429;DHT22;708;51.442;7.016;2022-12-18T16:26:29;4.70;99.90
1429;DHT22;708;51.442;7.016;2022-12-18T16:28:59;4.80;99.90
1429;DHT22;708;51.442;7.016;2022-12-18T16:31:26;4.80;99.90
1429;DHT22;708;51.442;7.016;2022-12-18T16:34:15;4.80;99.90
1429;DHT22;708;51.442;7.016;2022-12-18T16:36:44;4.90;99.90
1429;DHT22;708;51.442;7.016;2022-12-18T16:39:11;4.90;99.90
1429;DHT22;708;51.442;7.016;2022-12-18T16:41:39;4.90;99.90
1429;DHT22;708;51.442;7.016;2022-12-18T16:44:06;4.90;99.90
1429;DHT22;708;51.442;7.016;2022-12-18T16:46:33;4.80;99.90
1429;DHT22;708;51.442;7.016;2022-12-18T16:49:00;4.90;99.90
1429;DHT22;708;51.442;7.016;2022-12-18T16:51:27;4.80;99.90
1429;DHT22;708;51.442;7.016;2022-12-18T16:53:54;4.90;99.90
1429;DHT22;708;51.442;7.016;2022-12-18T16:56:21;4.90;99.90